createdAt,value
2016-10-06T00:00:46.446Z,923.83
2016-10-06T00:01:57.180Z,923.74
2016-10-06T00:03:07.906Z,923.79
2016-10-06T00:04:18.652Z,923.78
2016-10-06T00:05:29.403Z,923.8
2016-10-06T00:06:40.138Z,923.8
2016-10-06T00:07:50.890Z,923.67
2016-10-06T00:09:01.664Z,923.67
2016-10-06T00:10:12.718Z,923.63
2016-10-06T00:11:23.467Z,923.58
2016-10-06T00:12:34.222Z,923.62
2016-10-06T00:13:44.931Z,923.59
2016-10-06T00:14:55.685Z,923.67
2016-10-06T00:16:06.402Z,923.69
2016-10-06T00:17:17.113Z,923.53
2016-10-06T00:18:27.832Z,923.58
2016-10-06T00:19:38.574Z,923.47
2016-10-06T00:20:49.296Z,923.44
2016-10-06T00:22:00.023Z,923.54
2016-10-06T00:23:10.779Z,923.6
2016-10-06T00:24:21.515Z,923.64
2016-10-06T00:25:32.239Z,923.68
2016-10-06T00:26:42.986Z,923.68
2016-10-06T00:27:53.729Z,923.78
2016-10-06T00:29:04.452Z,923.85
2016-10-06T00:30:15.162Z,923.81
2016-10-06T00:31:25.871Z,923.71
2016-10-06T00:32:36.593Z,923.64
2016-10-06T00:33:47.323Z,923.63
2016-10-06T00:34:58.066Z,923.6
2016-10-06T00:36:08.793Z,923.54
2016-10-06T00:37:19.542Z,923.52
2016-10-06T00:38:30.307Z,923.59
2016-10-06T00:39:41.029Z,923.62
2016-10-06T00:40:51.779Z,923.57
2016-10-06T00:42:03.019Z,923.52
2016-10-06T00:43:13.749Z,923.42
2016-10-06T00:44:24.455Z,923.45
2016-10-06T00:45:35.207Z,923.35
2016-10-06T00:46:45.935Z,923.44
2016-10-06T00:47:56.658Z,923.37
2016-10-06T00:49:07.389Z,923.41
2016-10-06T00:50:18.117Z,923.35
2016-10-06T00:51:28.869Z,923.32
2016-10-06T00:52:39.631Z,923.3
2016-10-06T00:53:50.358Z,923.27
2016-10-06T00:55:01.095Z,923.27
2016-10-06T00:56:12.146Z,923.28
2016-10-06T00:57:22.905Z,923.34
2016-10-06T00:58:34.196Z,923.33
2016-10-06T00:59:44.933Z,923.33
2016-10-06T01:00:55.644Z,923.28
2016-10-06T01:02:06.367Z,923.29
2016-10-06T01:03:17.102Z,923.27
2016-10-06T01:04:27.826Z,923.18
2016-10-06T01:05:39.058Z,923.22
2016-10-06T01:06:49.792Z,923.2
2016-10-06T01:08:02.002Z,923.2
2016-10-06T01:09:12.674Z,923.14
2016-10-06T01:10:23.362Z,923.17
2016-10-06T01:11:34.095Z,923.18
2016-10-06T01:12:44.834Z,923.13
2016-10-06T01:13:55.585Z,923.2
2016-10-06T01:15:06.311Z,923.23
2016-10-06T01:16:17.029Z,923.25
2016-10-06T01:17:28.284Z,923.29
2016-10-06T01:18:39.035Z,923.37
2016-10-06T01:19:49.775Z,923.46
2016-10-06T01:21:00.473Z,923.38
2016-10-06T01:22:11.196Z,923.41
2016-10-06T01:23:21.893Z,923.48
2016-10-06T01:24:32.612Z,923.44
2016-10-06T01:25:43.348Z,923.42
2016-10-06T01:26:54.089Z,923.3
2016-10-06T01:28:04.819Z,923.48
2016-10-06T01:29:15.552Z,923.46
2016-10-06T01:30:26.267Z,923.46
2016-10-06T01:31:36.999Z,923.42
2016-10-06T01:32:47.722Z,923.4
2016-10-06T01:33:58.480Z,923.32
2016-10-06T01:35:09.204Z,923.34
2016-10-06T01:36:19.949Z,923.33
2016-10-06T01:37:30.667Z,923.33
2016-10-06T01:38:41.900Z,923.32
2016-10-06T01:39:52.650Z,923.31
2016-10-06T01:41:03.373Z,923.27
2016-10-06T01:42:14.616Z,923.17
2016-10-06T01:43:25.336Z,923.13
2016-10-06T01:44:36.083Z,923.09
2016-10-06T01:45:46.845Z,922.99
2016-10-06T01:46:57.571Z,923.06
2016-10-06T01:48:08.319Z,923.06
2016-10-06T01:49:19.054Z,923.07
2016-10-06T01:50:29.798Z,922.99
2016-10-06T01:51:40.550Z,922.96
2016-10-06T01:52:51.278Z,922.97
2016-10-06T01:54:02.034Z,923.09
2016-10-06T01:55:12.753Z,923.03
2016-10-06T01:56:23.483Z,923.02
2016-10-06T01:57:34.213Z,923.03
2016-10-06T01:58:44.930Z,922.99
2016-10-06T01:59:55.647Z,922.96
2016-10-06T02:01:06.371Z,922.95
2016-10-06T02:02:17.138Z,922.99
2016-10-06T02:03:27.865Z,922.98
2016-10-06T02:04:38.578Z,922.93
2016-10-06T02:05:49.287Z,922.95
2016-10-06T02:07:00.026Z,922.94
2016-10-06T02:08:10.756Z,922.87
2016-10-06T02:09:21.475Z,922.9
2016-10-06T02:10:32.233Z,922.93
2016-10-06T02:11:42.983Z,922.84
2016-10-06T02:12:53.742Z,922.94
2016-10-06T02:14:04.474Z,923.01
2016-10-06T02:15:15.194Z,922.97
2016-10-06T02:16:25.909Z,922.86
2016-10-06T02:17:36.628Z,922.84
2016-10-06T02:18:47.339Z,922.84
2016-10-06T02:19:58.070Z,922.85
2016-10-06T02:21:08.803Z,922.85
2016-10-06T02:22:19.537Z,922.8
2016-10-06T02:23:30.288Z,922.73
2016-10-06T02:24:41.036Z,922.72
2016-10-06T02:25:51.766Z,922.7
2016-10-06T02:27:02.499Z,922.69
2016-10-06T02:28:13.194Z,922.67
2016-10-06T02:29:23.892Z,922.67
2016-10-06T02:30:34.608Z,922.63
2016-10-06T02:31:45.336Z,922.64
2016-10-06T02:32:56.053Z,922.64
2016-10-06T02:34:06.808Z,922.6
2016-10-06T02:35:17.521Z,922.59
2016-10-06T02:36:28.250Z,922.55
2016-10-06T02:37:39.005Z,922.56
2016-10-06T02:38:49.727Z,922.56
2016-10-06T02:40:00.475Z,922.59
2016-10-06T02:41:11.204Z,922.56
2016-10-06T02:42:21.951Z,922.55
2016-10-06T02:43:32.635Z,922.55
2016-10-06T02:44:43.375Z,922.53
2016-10-06T02:45:54.117Z,922.49
2016-10-06T02:47:04.858Z,922.41
2016-10-06T02:48:15.556Z,922.4
2016-10-06T02:49:26.320Z,922.42
2016-10-06T02:50:37.053Z,922.4
2016-10-06T02:51:47.801Z,922.34
2016-10-06T02:52:58.511Z,922.34
2016-10-06T02:54:09.250Z,922.33
2016-10-06T02:55:20.000Z,922.31
2016-10-06T02:56:30.723Z,922.32
2016-10-06T02:57:41.440Z,922.29
2016-10-06T02:58:52.175Z,922.31
2016-10-06T03:00:02.896Z,922.32
2016-10-06T03:01:13.621Z,922.33
2016-10-06T03:02:24.359Z,922.31
2016-10-06T03:03:35.648Z,922.23
2016-10-06T03:04:46.386Z,922.23
2016-10-06T03:05:57.104Z,922.22
2016-10-06T03:07:07.840Z,922.2
2016-10-06T03:08:18.585Z,922.19
2016-10-06T03:09:29.301Z,922.11
2016-10-06T03:10:40.051Z,922.08
2016-10-06T03:11:50.784Z,922.07
2016-10-06T03:13:02.029Z,922.04
2016-10-06T03:14:12.752Z,922.04
2016-10-06T03:15:23.476Z,922.12
2016-10-06T03:16:34.202Z,922.1
2016-10-06T03:17:44.955Z,922.14
2016-10-06T03:18:55.658Z,922.09
2016-10-06T03:20:06.411Z,922.04
2016-10-06T03:21:17.152Z,922.03
2016-10-06T03:22:27.888Z,921.99
2016-10-06T03:23:38.594Z,922
2016-10-06T03:24:49.330Z,921.92
2016-10-06T03:26:00.047Z,921.94
2016-10-06T03:27:10.773Z,921.94
2016-10-06T03:28:21.499Z,921.96
2016-10-06T03:29:32.236Z,921.97
2016-10-06T03:30:42.960Z,921.91
2016-10-06T03:31:53.685Z,921.92
2016-10-06T03:33:05.206Z,921.94
2016-10-06T03:34:15.939Z,921.9
2016-10-06T03:35:27.193Z,921.85
2016-10-06T03:36:37.925Z,921.89
2016-10-06T03:37:48.667Z,921.91
2016-10-06T03:38:59.407Z,921.91
2016-10-06T03:40:10.122Z,921.89
2016-10-06T03:41:20.856Z,921.92
2016-10-06T03:42:31.586Z,921.84
2016-10-06T03:43:42.335Z,921.81
2016-10-06T03:44:53.084Z,921.76
2016-10-06T03:46:03.815Z,921.74
2016-10-06T03:47:14.541Z,921.76
2016-10-06T03:48:25.259Z,921.77
2016-10-06T03:49:36.010Z,921.74
2016-10-06T03:50:46.766Z,921.74
2016-10-06T03:51:57.500Z,921.7
2016-10-06T03:53:08.232Z,921.7
2016-10-06T03:54:19.477Z,921.61
2016-10-06T03:55:30.213Z,921.58
2016-10-06T03:56:40.945Z,921.55
2016-10-06T03:57:52.241Z,921.51
2016-10-06T03:59:02.956Z,921.52
2016-10-06T04:00:14.702Z,921.49
2016-10-06T04:01:25.449Z,921.51
2016-10-06T04:02:36.182Z,921.47
2016-10-06T04:03:47.438Z,921.36
2016-10-06T04:04:58.250Z,921.43
2016-10-06T04:06:09.032Z,921.36
2016-10-06T04:07:20.278Z,921.35
2016-10-06T04:08:31.020Z,921.33
2016-10-06T04:09:41.765Z,921.36
2016-10-06T04:10:52.495Z,921.38
2016-10-06T04:12:03.212Z,921.4
2016-10-06T04:13:13.960Z,921.38
2016-10-06T04:14:24.721Z,921.39
2016-10-06T04:15:35.453Z,921.34
2016-10-06T04:16:46.196Z,921.31
2016-10-06T04:17:56.927Z,921.33
2016-10-06T04:19:07.657Z,921.29
2016-10-06T04:20:18.519Z,921.3
2016-10-06T04:21:29.228Z,921.3
2016-10-06T04:22:39.963Z,921.29
2016-10-06T04:23:50.707Z,921.27
2016-10-06T04:25:01.442Z,921.22
2016-10-06T04:26:12.172Z,921.2
2016-10-06T04:27:22.932Z,921.17
2016-10-06T04:28:33.649Z,921.23
2016-10-06T04:29:44.392Z,921.22
2016-10-06T04:30:55.121Z,921.16
2016-10-06T04:32:05.874Z,921.11
2016-10-06T04:33:16.594Z,921.07
2016-10-06T04:34:27.321Z,921.04
2016-10-06T04:35:38.042Z,921.04
2016-10-06T04:36:48.783Z,921.04
2016-10-06T04:38:00.067Z,921.06
2016-10-06T04:39:10.789Z,921.04
2016-10-06T04:40:21.511Z,921.01
2016-10-06T04:41:32.748Z,921
2016-10-06T04:42:43.475Z,921.01
2016-10-06T04:43:54.214Z,920.95
2016-10-06T04:45:04.957Z,920.97
2016-10-06T04:46:15.688Z,920.93
2016-10-06T04:47:26.422Z,920.95
2016-10-06T04:48:37.703Z,920.92
2016-10-06T04:49:48.438Z,920.91
2016-10-06T04:50:59.176Z,920.87
2016-10-06T04:52:09.890Z,920.89
2016-10-06T04:53:20.613Z,920.87
2016-10-06T04:54:31.357Z,920.84
2016-10-06T04:55:42.089Z,920.84
2016-10-06T04:56:52.804Z,920.86
2016-10-06T04:58:03.543Z,920.8
2016-10-06T04:59:14.257Z,920.77
2016-10-06T05:00:24.966Z,920.74
2016-10-06T05:01:35.704Z,920.69
2016-10-06T05:02:46.424Z,920.66
2016-10-06T05:03:57.153Z,920.63
2016-10-06T05:05:07.867Z,920.55
2016-10-06T05:06:18.586Z,920.51
2016-10-06T05:07:29.313Z,920.53
2016-10-06T05:08:40.046Z,920.49
2016-10-06T05:09:50.765Z,920.46
2016-10-06T05:11:02.495Z,920.43
2016-10-06T05:12:13.195Z,920.48
2016-10-06T05:13:23.915Z,920.45
2016-10-06T05:14:34.660Z,920.47
2016-10-06T05:15:45.421Z,920.44
2016-10-06T05:16:56.136Z,920.38
2016-10-06T05:18:06.874Z,920.47
2016-10-06T05:19:17.607Z,920.44
2016-10-06T05:20:28.343Z,920.44
2016-10-06T05:21:39.172Z,920.46
2016-10-06T05:22:49.906Z,920.42
2016-10-06T05:24:00.619Z,920.38
2016-10-06T05:25:11.355Z,920.39
2016-10-06T05:26:22.073Z,920.34
2016-10-06T05:27:32.806Z,920.34
2016-10-06T05:28:43.532Z,920.21
2016-10-06T05:29:54.281Z,920.28
2016-10-06T05:31:04.994Z,920.18
2016-10-06T05:32:15.730Z,920.27
2016-10-06T05:33:26.457Z,920.25
2016-10-06T05:34:37.193Z,920.17
2016-10-06T05:35:48.433Z,920.22
2016-10-06T05:36:59.184Z,920.2
2016-10-06T05:38:09.906Z,920.19
2016-10-06T05:39:20.630Z,920.18
2016-10-06T05:40:31.351Z,920.17
2016-10-06T05:41:42.067Z,920.16
2016-10-06T05:42:52.802Z,920.16
2016-10-06T05:44:03.545Z,920.09
2016-10-06T05:45:14.287Z,920.13
2016-10-06T05:46:25.023Z,920.11
2016-10-06T05:47:35.754Z,920.01
2016-10-06T05:48:46.495Z,920.05
2016-10-06T05:49:57.233Z,920.05
2016-10-06T05:51:07.969Z,920.09
2016-10-06T05:52:18.719Z,920.07
2016-10-06T05:53:29.452Z,920.15
2016-10-06T05:54:40.179Z,920.12
2016-10-06T05:55:50.900Z,920.05
2016-10-06T05:57:01.653Z,920.07
2016-10-06T05:58:12.887Z,920.05
2016-10-06T05:59:23.620Z,920.02
2016-10-06T06:00:34.356Z,920
2016-10-06T06:01:45.101Z,920.01
2016-10-06T06:02:55.859Z,920.05
2016-10-06T06:04:06.578Z,920.06
2016-10-06T06:05:17.311Z,920.09
2016-10-06T06:06:28.051Z,920.13
2016-10-06T06:07:38.789Z,920.12
2016-10-06T06:08:49.521Z,920.14
2016-10-06T06:10:00.243Z,920.13
2016-10-06T06:11:11.008Z,920.12
2016-10-06T06:12:21.761Z,920.08
2016-10-06T06:13:32.469Z,920.09
2016-10-06T06:14:43.192Z,920.05
2016-10-06T06:15:53.915Z,920.02
2016-10-06T06:17:04.636Z,920.01
2016-10-06T06:18:15.372Z,919.95
2016-10-06T06:19:26.094Z,919.95
2016-10-06T06:20:36.820Z,919.89
2016-10-06T06:21:47.568Z,919.87
2016-10-06T06:22:58.329Z,919.86
2016-10-06T06:24:09.035Z,919.85
2016-10-06T06:25:19.804Z,919.89
2016-10-06T06:26:30.545Z,919.9
2016-10-06T06:27:41.273Z,919.92
2016-10-06T06:28:51.997Z,919.85
2016-10-06T06:30:02.735Z,919.86
2016-10-06T06:31:13.471Z,919.81
2016-10-06T06:32:24.191Z,919.68
2016-10-06T06:33:34.904Z,919.67
2016-10-06T06:34:45.642Z,919.57
2016-10-06T06:35:56.355Z,919.57
2016-10-06T06:37:07.089Z,919.51
2016-10-06T06:38:17.836Z,919.58
2016-10-06T06:39:28.570Z,919.57
2016-10-06T06:40:39.287Z,919.54
2016-10-06T06:41:50.545Z,919.61
2016-10-06T06:43:01.270Z,919.55
2016-10-06T06:44:12.002Z,919.55
2016-10-06T06:45:22.719Z,919.42
2016-10-06T06:46:33.467Z,919.39
2016-10-06T06:47:44.213Z,919.4
2016-10-06T06:48:54.929Z,919.44
2016-10-06T06:50:05.640Z,919.42
2016-10-06T06:51:16.376Z,919.37
2016-10-06T06:52:27.094Z,919.3
2016-10-06T06:53:37.814Z,919.27
2016-10-06T06:54:48.548Z,919.24
2016-10-06T06:55:59.275Z,919.27
2016-10-06T06:57:10.007Z,919.26
2016-10-06T06:58:20.734Z,919.25
2016-10-06T06:59:31.480Z,919.22
2016-10-06T07:00:42.223Z,919.28
2016-10-06T07:01:53.490Z,919.32
2016-10-06T07:03:04.250Z,919.33
2016-10-06T07:04:14.974Z,919.3
2016-10-06T07:05:25.711Z,919.33
2016-10-06T07:06:36.472Z,919.36
2016-10-06T07:07:47.184Z,919.3
2016-10-06T07:08:57.913Z,919.31
2016-10-06T07:10:08.671Z,919.33
2016-10-06T07:11:19.402Z,919.36
2016-10-06T07:12:30.124Z,919.34
2016-10-06T07:13:40.855Z,919.36
2016-10-06T07:14:51.604Z,919.34
2016-10-06T07:16:02.343Z,919.3
2016-10-06T07:17:13.059Z,919.32
2016-10-06T07:18:23.794Z,919.34
2016-10-06T07:19:35.137Z,919.34
2016-10-06T07:20:45.888Z,919.34
2016-10-06T07:21:56.610Z,919.36
2016-10-06T07:23:07.843Z,919.39
2016-10-06T07:24:18.569Z,919.37
2016-10-06T07:25:29.290Z,919.37
2016-10-06T07:26:40.041Z,919.39
2016-10-06T07:27:50.805Z,919.37
2016-10-06T07:29:01.541Z,919.37
2016-10-06T07:30:12.280Z,919.39
2016-10-06T07:31:23.017Z,919.42
2016-10-06T07:32:33.746Z,919.38
2016-10-06T07:33:44.467Z,919.38
2016-10-06T07:34:55.214Z,919.39
2016-10-06T07:36:05.958Z,919.41
2016-10-06T07:37:16.685Z,919.46
2016-10-06T07:38:27.393Z,919.45
2016-10-06T07:39:38.107Z,919.43
2016-10-06T07:40:48.820Z,919.46
2016-10-06T07:41:59.550Z,919.42
2016-10-06T07:43:10.491Z,919.42
2016-10-06T07:44:21.237Z,919.48
2016-10-06T07:45:32.001Z,919.46
2016-10-06T07:46:42.755Z,919.44
2016-10-06T07:47:53.494Z,919.44
2016-10-06T07:49:04.258Z,919.43
2016-10-06T07:50:14.985Z,919.41
2016-10-06T07:51:25.720Z,919.4
2016-10-06T07:52:36.461Z,919.4
2016-10-06T07:53:47.713Z,919.43
2016-10-06T07:54:58.450Z,919.41
2016-10-06T07:56:09.163Z,919.41
2016-10-06T07:57:19.909Z,919.4
2016-10-06T07:58:30.645Z,919.35
2016-10-06T07:59:41.375Z,919.37
2016-10-06T08:00:52.099Z,919.4
2016-10-06T08:02:02.848Z,919.4
2016-10-06T08:03:13.589Z,919.39
2016-10-06T08:04:24.323Z,919.34
2016-10-06T08:05:35.042Z,919.36
2016-10-06T08:06:46.268Z,919.37
2016-10-06T08:07:57.501Z,919.38
2016-10-06T08:09:08.254Z,919.39
2016-10-06T08:10:18.971Z,919.44
2016-10-06T08:11:29.709Z,919.42
2016-10-06T08:12:40.450Z,919.42
2016-10-06T08:13:51.205Z,919.41
2016-10-06T08:15:02.466Z,919.42
2016-10-06T08:16:13.194Z,919.39
2016-10-06T08:17:23.958Z,919.38
2016-10-06T08:18:34.688Z,919.42
2016-10-06T08:19:45.433Z,919.44
2016-10-06T08:20:56.153Z,919.44
2016-10-06T08:22:06.888Z,919.41
2016-10-06T08:23:17.617Z,919.36
2016-10-06T08:24:28.349Z,919.29
2016-10-06T08:25:39.091Z,919.24
2016-10-06T08:26:49.820Z,919.23
2016-10-06T08:28:00.552Z,919.26
2016-10-06T08:29:11.271Z,919.3
2016-10-06T08:30:22.009Z,919.28
2016-10-06T08:31:32.761Z,919.35
2016-10-06T08:32:43.500Z,919.36
2016-10-06T08:33:54.222Z,919.39
2016-10-06T08:35:04.939Z,919.4
2016-10-06T08:36:16.174Z,919.38
2016-10-06T08:37:26.905Z,919.44
2016-10-06T08:38:37.649Z,919.5
2016-10-06T08:39:48.910Z,919.52
2016-10-06T08:40:59.643Z,919.5
2016-10-06T08:42:10.376Z,919.47
2016-10-06T08:43:21.109Z,919.45
2016-10-06T08:44:31.879Z,919.51
2016-10-06T08:45:42.629Z,919.55
2016-10-06T08:46:53.355Z,919.55
2016-10-06T08:48:04.091Z,919.58
2016-10-06T08:49:14.855Z,919.57
2016-10-06T08:50:25.565Z,919.57
2016-10-06T08:51:36.294Z,919.57
2016-10-06T08:52:47.014Z,919.58
2016-10-06T08:53:57.757Z,919.57
2016-10-06T08:55:08.471Z,919.61
2016-10-06T08:56:19.195Z,919.65
2016-10-06T08:57:29.939Z,919.63
2016-10-06T08:58:40.659Z,919.65
2016-10-06T08:59:51.393Z,919.66
2016-10-06T09:01:02.147Z,919.59
2016-10-06T09:02:12.895Z,919.59
2016-10-06T09:03:23.633Z,919.59
2016-10-06T09:04:34.372Z,919.61
2016-10-06T09:05:45.111Z,919.63
2016-10-06T09:06:55.844Z,919.63
2016-10-06T09:08:06.581Z,919.66
2016-10-06T09:09:17.309Z,919.66
2016-10-06T09:10:28.023Z,919.69
2016-10-06T09:11:38.734Z,919.69
2016-10-06T09:12:50.015Z,919.71
2016-10-06T09:14:00.729Z,919.72
2016-10-06T09:15:11.467Z,919.73
2016-10-06T09:16:22.222Z,919.73
2016-10-06T09:17:32.943Z,919.73
2016-10-06T09:18:43.669Z,919.79
2016-10-06T09:19:54.409Z,919.79
2016-10-06T09:21:05.137Z,919.79
2016-10-06T09:22:15.880Z,919.77
2016-10-06T09:23:26.616Z,919.82
2016-10-06T09:24:37.341Z,919.84
2016-10-06T09:25:48.073Z,919.81
2016-10-06T09:26:58.824Z,919.79
2016-10-06T09:28:09.571Z,919.76
2016-10-06T09:29:20.632Z,919.78
2016-10-06T09:30:31.360Z,919.79
2016-10-06T09:31:42.067Z,919.83
2016-10-06T09:32:52.785Z,919.86
2016-10-06T09:34:03.505Z,919.86
2016-10-06T09:35:14.240Z,919.8
2016-10-06T09:36:24.982Z,919.81
2016-10-06T09:37:35.704Z,919.84
2016-10-06T09:38:46.454Z,919.82
2016-10-06T09:39:57.192Z,919.83
2016-10-06T09:41:07.923Z,919.84
2016-10-06T09:42:18.656Z,919.92
2016-10-06T09:43:29.391Z,919.96
2016-10-06T09:44:40.143Z,919.98
2016-10-06T09:45:50.871Z,919.96
2016-10-06T09:47:01.592Z,919.94
2016-10-06T09:48:12.306Z,919.96
2016-10-06T09:49:23.050Z,919.99
2016-10-06T09:50:33.786Z,920
2016-10-06T09:51:44.514Z,920.04
2016-10-06T09:52:55.246Z,920.06
2016-10-06T09:54:05.990Z,920.09
2016-10-06T09:55:16.738Z,920.11
2016-10-06T09:56:27.473Z,920.03
2016-10-06T09:57:38.209Z,920.09
2016-10-06T09:58:48.955Z,920.15
2016-10-06T09:59:59.710Z,920.11
2016-10-06T10:01:10.443Z,920.17
2016-10-06T10:02:21.727Z,920.14
2016-10-06T10:03:32.445Z,920.18
2016-10-06T10:04:43.180Z,920.13
2016-10-06T10:05:53.915Z,920.2
2016-10-06T10:07:05.159Z,920.19
2016-10-06T10:08:15.888Z,920.2
2016-10-06T10:09:26.628Z,920.15
2016-10-06T10:10:37.356Z,920.13
2016-10-06T10:11:48.109Z,920.13
2016-10-06T10:12:58.861Z,920.12
2016-10-06T10:14:09.593Z,920.19
2016-10-06T10:15:20.296Z,920.2
2016-10-06T10:16:31.571Z,920.19
2016-10-06T10:17:42.326Z,920.21
2016-10-06T10:18:53.064Z,920.21
2016-10-06T10:20:03.807Z,920.21
2016-10-06T10:21:14.576Z,920.22
2016-10-06T10:22:25.393Z,920.19
2016-10-06T10:23:36.122Z,920.23
2016-10-06T10:24:46.839Z,920.25
2016-10-06T10:25:57.575Z,920.2
2016-10-06T10:27:08.295Z,920.19
2016-10-06T10:28:19.024Z,920.18
2016-10-06T10:29:29.744Z,920.16
2016-10-06T10:30:40.490Z,920.16
2016-10-06T10:31:51.249Z,920.15
2016-10-06T10:33:01.989Z,920.13
2016-10-06T10:34:12.823Z,920.22
2016-10-06T10:35:23.538Z,920.18
2016-10-06T10:36:34.261Z,920.23
2016-10-06T10:37:45.015Z,920.18
2016-10-06T10:38:55.762Z,920.2
2016-10-06T10:40:06.498Z,920.2
2016-10-06T10:41:17.234Z,920.21
2016-10-06T10:42:27.958Z,920.17
2016-10-06T10:43:38.692Z,920.15
2016-10-06T10:44:49.440Z,920.08
2016-10-06T10:46:00.179Z,920.14
2016-10-06T10:47:11.034Z,920.15
2016-10-06T10:48:21.765Z,920.17
2016-10-06T10:49:32.547Z,920.19
2016-10-06T10:50:43.298Z,920.15
2016-10-06T10:51:54.058Z,920.16
2016-10-06T10:53:04.846Z,920.15
2016-10-06T10:54:15.599Z,920.16
2016-10-06T10:55:26.335Z,920.13
2016-10-06T10:56:37.115Z,920.18
2016-10-06T10:57:47.856Z,920.14
2016-10-06T10:58:59.631Z,920.12
2016-10-06T11:00:10.373Z,920.16
2016-10-06T11:01:21.113Z,920.1
2016-10-06T11:02:31.904Z,920.11
2016-10-06T11:03:42.962Z,920.09
2016-10-06T11:04:53.707Z,920.13
2016-10-06T11:06:04.438Z,920.14
2016-10-06T11:07:15.189Z,920.13
2016-10-06T11:08:25.919Z,920.12
2016-10-06T11:09:37.161Z,920.15
2016-10-06T11:10:47.904Z,920.24
2016-10-06T11:11:58.639Z,920.22
2016-10-06T11:13:09.982Z,920.23
2016-10-06T11:14:20.722Z,920.24
2016-10-06T11:15:31.983Z,920.24
2016-10-06T11:16:42.736Z,920.18
2016-10-06T11:17:53.505Z,920.18
2016-10-06T11:19:04.237Z,920.19
2016-10-06T11:20:15.006Z,920.17
2016-10-06T11:21:25.739Z,920.26
2016-10-06T11:22:36.472Z,920.2
2016-10-06T11:23:47.214Z,920.2
2016-10-06T11:24:57.944Z,920.1
2016-10-06T11:26:08.691Z,920.18
2016-10-06T11:27:19.421Z,920.2
2016-10-06T11:28:30.165Z,920.17
2016-10-06T11:29:40.896Z,920.12
2016-10-06T11:30:52.160Z,920.14
2016-10-06T11:32:02.906Z,920.1
2016-10-06T11:33:13.629Z,920.17
2016-10-06T11:34:24.401Z,920.17
2016-10-06T11:35:35.134Z,920.2
2016-10-06T11:36:45.917Z,920.18
2016-10-06T11:37:57.112Z,920.19
2016-10-06T11:39:07.849Z,920.21
2016-10-06T11:40:18.584Z,920.19
2016-10-06T11:41:29.312Z,920.17
2016-10-06T11:42:40.052Z,920.18
2016-10-06T11:43:50.802Z,920.16
2016-10-06T11:45:01.530Z,920.17
2016-10-06T11:46:12.256Z,920.17
2016-10-06T11:47:23.004Z,920.2
2016-10-06T11:48:33.733Z,920.17
2016-10-06T11:49:44.487Z,920.18
2016-10-06T11:50:55.250Z,920.11
2016-10-06T11:52:05.979Z,920.13
2016-10-06T11:53:16.714Z,920.13
2016-10-06T11:54:27.456Z,920.13
2016-10-06T11:55:38.224Z,920.15
2016-10-06T11:56:48.966Z,920.09
2016-10-06T11:57:59.711Z,920.09
2016-10-06T11:59:10.446Z,920.09
2016-10-06T12:00:21.191Z,920.11
2016-10-06T12:01:31.939Z,920.07
2016-10-06T12:02:42.692Z,920.13
2016-10-06T12:03:53.978Z,920.12
2016-10-06T12:05:04.710Z,920.09
2016-10-06T12:06:15.976Z,920.09
2016-10-06T12:07:26.933Z,920.05
2016-10-06T12:08:37.664Z,920.03
2016-10-06T12:09:48.415Z,920.04
2016-10-06T12:10:59.714Z,920.01
2016-10-06T12:12:10.513Z,919.97
2016-10-06T12:13:21.260Z,919.96
2016-10-06T12:14:31.995Z,919.93
2016-10-06T12:15:42.744Z,919.88
2016-10-06T12:16:53.479Z,919.93
2016-10-06T12:18:04.222Z,919.9
2016-10-06T12:19:15.017Z,919.86
2016-10-06T12:20:25.769Z,919.85
2016-10-06T12:21:36.508Z,919.86
2016-10-06T12:22:47.243Z,919.84
2016-10-06T12:23:58.555Z,919.86
2016-10-06T12:25:09.278Z,919.92
2016-10-06T12:26:21.614Z,919.88
2016-10-06T12:27:32.875Z,919.84
2016-10-06T12:28:43.613Z,919.88
2016-10-06T12:29:54.396Z,919.89
2016-10-06T12:31:05.158Z,919.85
2016-10-06T12:32:15.900Z,919.79
2016-10-06T12:33:26.673Z,919.86
2016-10-06T12:34:37.419Z,919.89
2016-10-06T12:35:48.171Z,919.84
2016-10-06T12:36:58.924Z,919.88
2016-10-06T12:38:09.648Z,919.91
2016-10-06T12:39:20.385Z,919.84
2016-10-06T12:40:31.118Z,919.86
2016-10-06T12:41:41.855Z,919.83
2016-10-06T12:42:52.590Z,919.83
2016-10-06T12:44:03.325Z,919.79
2016-10-06T12:45:14.074Z,919.8
2016-10-06T12:46:24.820Z,919.76
2016-10-06T12:47:35.565Z,919.79
2016-10-06T12:48:46.316Z,919.76
2016-10-06T12:49:57.056Z,919.72
2016-10-06T12:51:07.803Z,919.75
2016-10-06T12:52:18.556Z,919.72
2016-10-06T12:53:29.335Z,919.76
2016-10-06T12:54:40.594Z,919.8
2016-10-06T12:55:51.347Z,919.71
2016-10-06T12:57:02.096Z,919.72
2016-10-06T12:58:12.848Z,919.7
2016-10-06T12:59:23.586Z,919.73
2016-10-06T13:00:34.350Z,919.71
2016-10-06T13:01:45.620Z,919.73
2016-10-06T13:02:56.369Z,919.72
2016-10-06T13:04:07.113Z,919.7
2016-10-06T13:05:17.870Z,919.69
2016-10-06T13:06:28.600Z,919.72
2016-10-06T13:07:39.357Z,919.66
2016-10-06T13:08:50.094Z,919.74
2016-10-06T13:10:00.855Z,919.67
2016-10-06T13:11:11.604Z,919.65
2016-10-06T13:12:22.344Z,919.62
2016-10-06T13:13:33.104Z,919.67
2016-10-06T13:14:43.845Z,919.51
2016-10-06T13:15:55.119Z,919.55
2016-10-06T13:17:05.874Z,919.55
2016-10-06T13:18:16.615Z,919.53
2016-10-06T13:19:27.372Z,919.5
2016-10-06T13:20:38.126Z,919.52
2016-10-06T13:21:49.381Z,919.46
2016-10-06T13:23:00.136Z,919.47
2016-10-06T13:24:10.878Z,919.43
2016-10-06T13:25:21.643Z,919.42
2016-10-06T13:26:32.388Z,919.43
2016-10-06T13:27:43.148Z,919.4
2016-10-06T13:28:53.928Z,919.33
2016-10-06T13:30:05.180Z,919.35
2016-10-06T13:31:15.962Z,919.4
2016-10-06T13:32:26.698Z,919.43
2016-10-06T13:33:37.443Z,919.36
2016-10-06T13:34:48.203Z,919.36
2016-10-06T13:35:59.548Z,919.25
2016-10-06T13:37:10.314Z,919.23
2016-10-06T13:38:21.142Z,919.26
2016-10-06T13:39:32.329Z,919.18
2016-10-06T13:40:43.091Z,919.24
2016-10-06T13:41:53.898Z,919.28
2016-10-06T13:43:04.655Z,919.38
2016-10-06T13:44:15.430Z,919.22
2016-10-06T13:45:26.197Z,919.11
2016-10-06T13:46:36.972Z,919.17
2016-10-06T13:47:47.728Z,919.14
2016-10-06T13:48:58.469Z,918.9
2016-10-06T13:50:09.225Z,918.96
2016-10-06T13:51:20.513Z,919.07
2016-10-06T13:52:31.268Z,919.2
2016-10-06T13:53:42.039Z,919.15
2016-10-06T13:54:52.817Z,919.14
2016-10-06T13:56:03.911Z,919.1
2016-10-06T13:57:14.651Z,919.14
2016-10-06T13:58:25.394Z,919.23
2016-10-06T13:59:36.158Z,919.07
2016-10-06T14:00:47.408Z,919.01
2016-10-06T14:01:58.183Z,919.08
2016-10-06T14:03:08.954Z,919.07
2016-10-06T14:04:19.710Z,919.01
2016-10-06T14:05:30.455Z,919.11
2016-10-06T14:06:41.211Z,919.12
2016-10-06T14:07:51.969Z,919.07
2016-10-06T14:09:02.727Z,919.07
2016-10-06T14:10:13.508Z,919.03
2016-10-06T14:11:24.270Z,919.07
2016-10-06T14:12:35.016Z,919.08
2016-10-06T14:13:45.797Z,919.01
2016-10-06T14:14:57.054Z,918.99
2016-10-06T14:16:07.809Z,919.16
2016-10-06T14:17:18.550Z,919.02
2016-10-06T14:18:29.822Z,918.96
2016-10-06T14:19:40.547Z,919.04
2016-10-06T14:20:51.808Z,919.02
2016-10-06T14:22:03.059Z,919.15
2016-10-06T14:23:14.316Z,919
2016-10-06T14:24:25.043Z,918.81
2016-10-06T14:25:35.778Z,918.88
2016-10-06T14:26:46.530Z,918.86
2016-10-06T14:27:57.299Z,918.72
2016-10-06T14:29:08.675Z,918.79
2016-10-06T14:30:19.629Z,918.76
2016-10-06T14:31:30.382Z,918.72
2016-10-06T14:32:41.121Z,918.71
2016-10-06T14:33:51.880Z,918.84
2016-10-06T14:35:02.631Z,918.6
2016-10-06T14:36:13.370Z,918.65
2016-10-06T14:37:24.100Z,918.84
2016-10-06T14:38:34.821Z,918.89
2016-10-06T14:39:46.085Z,919.02
2016-10-06T14:40:56.852Z,918.76
2016-10-06T14:42:07.611Z,918.78
2016-10-06T14:43:18.371Z,918.74
2016-10-06T14:44:29.106Z,918.79
2016-10-06T14:45:39.861Z,918.64
2016-10-06T14:46:51.146Z,918.52